sensor_id;sensor_type;location;lat;lon;timestamp;P1;durP1;ratioP1;P2;durP2;ratioP2
75356;SDS011;63946;51.986;5.930;2023-07-20T04:43:35;1.90;;;1.48;;
75356;SDS011;63946;51.986;5.930;2023-07-20T04:46:04;5.72;;;2.58;;
75356;SDS011;63946;51.986;5.930;2023-07-20T04:48:36;2.80;;;2.10;;
75356;SDS011;63946;51.986;5.930;2023-07-20T04:51:06;1.90;;;1.80;;
75356;SDS011;63946;51.986;5.930;2023-07-20T04:53:35;2.13;;;1.65;;
75356;SDS011;63946;51.986;5.930;2023-07-20T04:56:06;2.50;;;1.67;;
75356;SDS011;63946;51.986;5.930;2023-07-20T04:58:34;2.13;;;1.73;;
75356;SDS011;63946;51.986;5.930;2023-07-20T05:01:03;1.98;;;1.50;;
75356;SDS011;63946;51.986;5.930;2023-07-20T05:03:34;2.25;;;1.25;;
75356;SDS011;63946;51.986;5.930;2023-07-20T05:06:04;1.80;;;1.70;;
75356;SDS011;63946;51.986;5.930;2023-07-20T05:08:33;2.28;;;1.65;;
75356;SDS011;63946;51.986;5.930;2023-07-20T05:11:03;2.20;;;1.33;;
75356;SDS011;63946;51.986;5.930;2023-07-20T05:13:37;1.90;;;1.63;;
75356;SDS011;63946;51.986;5.930;2023-07-20T05:16:06;1.88;;;1.67;;
75356;SDS011;63946;51.986;5.930;2023-07-20T05:18:36;1.67;;;1.55;;
75356;SDS011;63946;51.986;5.930;2023-07-20T05:21:09;1.67;;;1.58;;
75356;SDS011;63946;51.986;5.930;2023-07-20T05:23:38;2.60;;;1.35;;
75356;SDS011;63946;51.986;5.930;2023-07-20T05:26:07;2.10;;;1.42;;
75356;SDS011;63946;51.986;5.930;2023-07-20T05:28:55;1.48;;;1.35;;
75356;SDS011;63946;51.986;5.930;2023-07-20T05:31:24;1.95;;;1.42;;
75356;SDS011;63946;51.986;5.930;2023-07-20T05:33:56;1.27;;;1.02;;
75356;SDS011;63946;51.986;5.930;2023-07-20T05:36:37;1.98;;;1.42;;
75356;SDS011;63946;51.986;5.930;2023-07-20T05:39:34;2.30;;;1.30;;
75356;SDS011;63946;51.986;5.930;2023-07-20T05:42:03;3.42;;;1.33;;
75356;SDS011;63946;51.986;5.930;2023-07-20T05:44:49;1.63;;;1.30;;
75356;SDS011;63946;51.986;5.930;2023-07-20T05:47:21;1.63;;;1.50;;
75356;SDS011;63946;51.986;5.930;2023-07-20T05:49:53;1.85;;;1.48;;
75356;SDS011;63946;51.986;5.930;2023-07-20T05:52:23;1.35;;;1.25;;
75356;SDS011;63946;51.986;5.930;2023-07-20T05:54:57;2.30;;;1.48;;
75356;SDS011;63946;51.986;5.930;2023-07-20T05:57:29;1.20;;;1.10;;
75356;SDS011;63946;51.986;5.930;2023-07-20T06:00:00;2.47;;;1.23;;
75356;SDS011;63946;51.986;5.930;2023-07-20T06:02:44;1.40;;;1.30;;
75356;SDS011;63946;51.986;5.930;2023-07-20T06:05:13;1.23;;;1.10;;
75356;SDS011;63946;51.986;5.930;2023-07-20T06:07:44;1.15;;;1.00;;
75356;SDS011;63946;51.986;5.930;2023-07-20T06:10:13;2.60;;;1.15;;
75356;SDS011;63946;51.986;5.930;2023-07-20T06:12:44;1.63;;;1.00;;
75356;SDS011;63946;51.986;5.930;2023-07-20T06:15:26;1.33;;;1.00;;
75356;SDS011;63946;51.986;5.930;2023-07-20T06:17:57;1.05;;;0.95;;
75356;SDS011;63946;51.986;5.930;2023-07-20T06:20:27;0.95;;;0.90;;
75356;SDS011;63946;51.986;5.930;2023-07-20T06:22:58;0.90;;;0.80;;
75356;SDS011;63946;51.986;5.930;2023-07-20T06:25:32;0.98;;;0.70;;
75356;SDS011;63946;51.986;5.930;2023-07-20T06:28:03;1.50;;;1.08;;
75356;SDS011;63946;51.986;5.930;2023-07-20T06:30:40;1.33;;;1.00;;
75356;SDS011;63946;51.986;5.930;2023-07-20T06:33:15;0.80;;;0.75;;
75356;SDS011;63946;51.986;5.930;2023-07-20T06:35:46;2.92;;;1.02;;
75356;SDS011;63946;51.986;5.930;2023-07-20T06:38:15;0.90;;;0.85;;
75356;SDS011;63946;51.986;5.930;2023-07-20T06:40:47;2.65;;;1.10;;
75356;SDS011;63946;51.986;5.930;2023-07-20T06:43:20;1.30;;;0.85;;
75356;SDS011;63946;51.986;5.930;2023-07-20T06:45:52;0.75;;;0.73;;
75356;SDS011;63946;51.986;5.930;2023-07-20T06:48:24;3.08;;;0.80;;
75356;SDS011;63946;51.986;5.930;2023-07-20T06:50:54;1.42;;;1.10;;
75356;SDS011;63946;51.986;5.930;2023-07-20T06:53:23;1.23;;;1.13;;
75356;SDS011;63946;51.986;5.930;2023-07-20T06:55:56;1.05;;;0.85;;
75356;SDS011;63946;51.986;5.930;2023-07-20T06:58:58;0.82;;;0.80;;
75356;SDS011;63946;51.986;5.930;2023-07-20T07:01:28;1.80;;;1.13;;
75356;SDS011;63946;51.986;5.930;2023-07-20T07:04:03;1.25;;;1.15;;
75356;SDS011;63946;51.986;5.930;2023-07-20T07:06:36;1.95;;;0.93;;
75356;SDS011;63946;51.986;5.930;2023-07-20T07:09:11;0.60;;;0.60;;
75356;SDS011;63946;51.986;5.930;2023-07-20T07:11:42;0.90;;;0.90;;
75356;SDS011;63946;51.986;5.930;2023-07-20T07:14:14;2.85;;;0.98;;
75356;SDS011;63946;51.986;5.930;2023-07-20T07:16:53;1.10;;;0.95;;
75356;SDS011;63946;51.986;5.930;2023-07-20T07:19:24;2.03;;;1.05;;
75356;SDS011;63946;51.986;5.930;2023-07-20T07:21:54;1.02;;;0.80;;
75356;SDS011;63946;51.986;5.930;2023-07-20T07:24:34;2.20;;;1.13;;
75356;SDS011;63946;51.986;5.930;2023-07-20T07:27:16;0.80;;;0.80;;
75356;SDS011;63946;51.986;5.930;2023-07-20T07:30:12;0.90;;;0.90;;
75356;SDS011;63946;51.986;5.930;2023-07-20T07:32:49;1.15;;;0.85;;
75356;SDS011;63946;51.986;5.930;2023-07-20T07:39:11;1.50;;;0.95;;
75356;SDS011;63946;51.986;5.930;2023-07-20T07:41:53;1.15;;;0.63;;
75356;SDS011;63946;51.986;5.930;2023-07-20T07:44:25;0.82;;;0.82;;
75356;SDS011;63946;51.986;5.930;2023-07-20T07:47:01;0.80;;;0.75;;
75356;SDS011;63946;51.986;5.930;2023-07-20T07:49:36;1.35;;;0.93;;
75356;SDS011;63946;51.986;5.930;2023-07-20T07:52:14;1.23;;;0.93;;
75356;SDS011;63946;51.986;5.930;2023-07-20T07:55:20;0.93;;;0.80;;
75356;SDS011;63946;51.986;5.930;2023-07-20T07:57:59;1.13;;;0.90;;
75356;SDS011;63946;51.986;5.930;2023-07-20T08:00:36;1.17;;;0.85;;
75356;SDS011;63946;51.986;5.930;2023-07-20T08:03:20;2.15;;;1.08;;
75356;SDS011;63946;51.986;5.930;2023-07-20T08:05:53;0.82;;;0.80;;
75356;SDS011;63946;51.986;5.930;2023-07-20T08:08:24;1.77;;;0.90;;
75356;SDS011;63946;51.986;5.930;2023-07-20T08:10:53;1.00;;;0.70;;
75356;SDS011;63946;51.986;5.930;2023-07-20T08:13:25;0.80;;;0.80;;
75356;SDS011;63946;51.986;5.930;2023-07-20T08:15:54;1.35;;;0.95;;
75356;SDS011;63946;51.986;5.930;2023-07-20T08:18:23;0.93;;;0.88;;
75356;SDS011;63946;51.986;5.930;2023-07-20T08:20:55;0.80;;;0.70;;
75356;SDS011;63946;51.986;5.930;2023-07-20T08:23:26;1.10;;;1.00;;
75356;SDS011;63946;51.986;5.930;2023-07-20T08:26:10;0.70;;;0.70;;
75356;SDS011;63946;51.986;5.930;2023-07-20T08:28:44;1.13;;;1.00;;
75356;SDS011;63946;51.986;5.930;2023-07-20T08:31:17;1.17;;;0.82;;
75356;SDS011;63946;51.986;5.930;2023-07-20T08:33:47;2.40;;;0.85;;
75356;SDS011;63946;51.986;5.930;2023-07-20T08:36:18;0.80;;;0.80;;
75356;SDS011;63946;51.986;5.930;2023-07-20T08:38:50;1.75;;;0.93;;
75356;SDS011;63946;51.986;5.930;2023-07-20T08:41:19;0.80;;;0.80;;
75356;SDS011;63946;51.986;5.930;2023-07-20T08:43:51;1.15;;;0.70;;
75356;SDS011;63946;51.986;5.930;2023-07-20T08:46:26;0.80;;;0.80;;
75356;SDS011;63946;51.986;5.930;2023-07-20T08:48:56;4.55;;;1.50;;
75356;SDS011;63946;51.986;5.930;2023-07-20T08:51:28;1.25;;;1.00;;
75356;SDS011;63946;51.986;5.930;2023-07-20T08:54:03;0.95;;;0.80;;
75356;SDS011;63946;51.986;5.930;2023-07-20T08:56:33;0.80;;;0.80;;
75356;SDS011;63946;51.986;5.930;2023-07-20T08:59:02;0.98;;;0.80;;
75356;SDS011;63946;51.986;5.930;2023-07-20T09:01:35;0.80;;;0.75;;
75356;SDS011;63946;51.986;5.930;2023-07-20T09:04:09;0.95;;;0.73;;
75356;SDS011;63946;51.986;5.930;2023-07-20T09:06:39;1.45;;;0.50;;
75356;SDS011;63946;51.986;5.930;2023-07-20T09:09:13;0.57;;;0.50;;
75356;SDS011;63946;51.986;5.930;2023-07-20T09:11:45;1.75;;;0.95;;
75356;SDS011;63946;51.986;5.930;2023-07-20T09:14:20;0.77;;;0.77;;
75356;SDS011;63946;51.986;5.930;2023-07-20T09:16:56;1.23;;;0.90;;
75356;SDS011;63946;51.986;5.930;2023-07-20T09:19:27;1.55;;;1.05;;
75356;SDS011;63946;51.986;5.930;2023-07-20T09:21:56;0.77;;;0.77;;
75356;SDS011;63946;51.986;5.930;2023-07-20T09:24:34;1.27;;;1.17;;
75356;SDS011;63946;51.986;5.930;2023-07-20T09:27:10;1.20;;;1.00;;
75356;SDS011;63946;51.986;5.930;2023-07-20T09:29:49;1.73;;;1.15;;
75356;SDS011;63946;51.986;5.930;2023-07-20T09:32:22;1.00;;;0.70;;
75356;SDS011;63946;51.986;5.930;2023-07-20T09:38:33;1.63;;;0.85;;
75356;SDS011;63946;51.986;5.930;2023-07-20T09:41:14;1.08;;;0.88;;
75356;SDS011;63946;51.986;5.930;2023-07-20T09:44:35;0.90;;;0.90;;
75356;SDS011;63946;51.986;5.930;2023-07-20T09:47:14;1.40;;;1.30;;
75356;SDS011;63946;51.986;5.930;2023-07-20T09:49:59;1.05;;;0.95;;
75356;SDS011;63946;51.986;5.930;2023-07-20T09:55:52;1.10;;;0.95;;
75356;SDS011;63946;51.986;5.930;2023-07-20T09:58:34;1.00;;;0.77;;
75356;SDS011;63946;51.986;5.930;2023-07-20T10:01:24;1.17;;;1.08;;
75356;SDS011;63946;51.986;5.930;2023-07-20T10:03:58;1.10;;;0.93;;
75356;SDS011;63946;51.986;5.930;2023-07-20T10:06:30;1.38;;;0.93;;
75356;SDS011;63946;51.986;5.930;2023-07-20T10:09:03;3.33;;;1.02;;
75356;SDS011;63946;51.986;5.930;2023-07-20T10:11:35;2.53;;;0.85;;
75356;SDS011;63946;51.986;5.930;2023-07-20T10:14:05;0.98;;;0.93;;
75356;SDS011;63946;51.986;5.930;2023-07-20T10:16:51;0.98;;;0.95;;
75356;SDS011;63946;51.986;5.930;2023-07-20T10:19:47;1.20;;;0.80;;
75356;SDS011;63946;51.986;5.930;2023-07-20T10:22:26;2.15;;;1.00;;
75356;SDS011;63946;51.986;5.930;2023-07-20T10:25:02;0.82;;;0.82;;
75356;SDS011;63946;51.986;5.930;2023-07-20T10:27:32;1.27;;;1.00;;
75356;SDS011;63946;51.986;5.930;2023-07-20T10:30:02;1.20;;;0.90;;
75356;SDS011;63946;51.986;5.930;2023-07-20T10:32:31;1.20;;;1.10;;
75356;SDS011;63946;51.986;5.930;2023-07-20T10:35:02;2.67;;;1.33;;
75356;SDS011;63946;51.986;5.930;2023-07-20T10:37:48;1.35;;;0.90;;
75356;SDS011;63946;51.986;5.930;2023-07-20T10:40:28;1.45;;;0.80;;
75356;SDS011;63946;51.986;5.930;2023-07-20T10:43:07;1.38;;;1.13;;
75356;SDS011;63946;51.986;5.930;2023-07-20T10:45:55;1.00;;;0.93;;
75356;SDS011;63946;51.986;5.930;2023-07-20T10:48:27;1.00;;;0.90;;
75356;SDS011;63946;51.986;5.930;2023-07-20T10:51:11;1.17;;;1.05;;
75356;SDS011;63946;51.986;5.930;2023-07-20T10:53:42;2.05;;;1.20;;
75356;SDS011;63946;51.986;5.930;2023-07-20T10:56:20;0.90;;;0.80;;
75356;SDS011;63946;51.986;5.930;2023-07-20T10:58:57;1.10;;;1.00;;
75356;SDS011;63946;51.986;5.930;2023-07-20T11:01:30;0.93;;;0.80;;
75356;SDS011;63946;51.986;5.930;2023-07-20T11:04:09;2.10;;;1.17;;
75356;SDS011;63946;51.986;5.930;2023-07-20T11:06:42;1.17;;;0.98;;
75356;SDS011;63946;51.986;5.930;2023-07-20T11:09:14;2.22;;;1.10;;
75356;SDS011;63946;51.986;5.930;2023-07-20T11:11:50;1.17;;;1.00;;
75356;SDS011;63946;51.986;5.930;2023-07-20T11:14:55;1.35;;;1.20;;
75356;SDS011;63946;51.986;5.930;2023-07-20T11:17:28;1.25;;;1.10;;
75356;SDS011;63946;51.986;5.930;2023-07-20T11:20:04;1.63;;;1.33;;
75356;SDS011;63946;51.986;5.930;2023-07-20T11:22:46;1.00;;;1.00;;
75356;SDS011;63946;51.986;5.930;2023-07-20T11:25:47;1.98;;;1.48;;
75356;SDS011;63946;51.986;5.930;2023-07-20T11:28:35;5.28;;;1.45;;
75356;SDS011;63946;51.986;5.930;2023-07-20T11:31:15;1.23;;;1.13;;
75356;SDS011;63946;51.986;5.930;2023-07-20T11:33:48;1.77;;;0.68;;
75356;SDS011;63946;51.986;5.930;2023-07-20T11:36:27;1.50;;;0.98;;
75356;SDS011;63946;51.986;5.930;2023-07-20T11:38:58;1.13;;;1.02;;
75356;SDS011;63946;51.986;5.930;2023-07-20T11:41:36;1.60;;;0.98;;
75356;SDS011;63946;51.986;5.930;2023-07-20T11:44:11;2.33;;;1.70;;
75356;SDS011;63946;51.986;5.930;2023-07-20T11:47:10;0.85;;;0.82;;
75356;SDS011;63946;51.986;5.930;2023-07-20T11:49:41;1.20;;;1.05;;
75356;SDS011;63946;51.986;5.930;2023-07-20T11:52:20;1.70;;;1.20;;
75356;SDS011;63946;51.986;5.930;2023-07-20T11:54:54;2.33;;;0.90;;
75356;SDS011;63946;51.986;5.930;2023-07-20T11:57:25;2.30;;;1.05;;
75356;SDS011;63946;51.986;5.930;2023-07-20T11:59:56;1.27;;;1.10;;
75356;SDS011;63946;51.986;5.930;2023-07-20T12:02:37;2.15;;;1.13;;
75356;SDS011;63946;51.986;5.930;2023-07-20T12:05:07;1.23;;;1.10;;
75356;SDS011;63946;51.986;5.930;2023-07-20T12:07:41;2.38;;;0.95;;
75356;SDS011;63946;51.986;5.930;2023-07-20T12:10:13;1.45;;;1.17;;
75356;SDS011;63946;51.986;5.930;2023-07-20T12:12:45;2.45;;;1.00;;
75356;SDS011;63946;51.986;5.930;2023-07-20T12:15:15;1.45;;;1.35;;
75356;SDS011;63946;51.986;5.930;2023-07-20T12:17:58;1.20;;;1.10;;
75356;SDS011;63946;51.986;5.930;2023-07-20T12:20:35;1.20;;;1.10;;
75356;SDS011;63946;51.986;5.930;2023-07-20T12:23:40;1.30;;;1.20;;
75356;SDS011;63946;51.986;5.930;2023-07-20T12:26:13;1.20;;;1.10;;
75356;SDS011;63946;51.986;5.930;2023-07-20T12:28:48;1.90;;;1.10;;
75356;SDS011;63946;51.986;5.930;2023-07-20T12:31:20;1.55;;;1.13;;
75356;SDS011;63946;51.986;5.930;2023-07-20T12:33:56;2.08;;;1.05;;
75356;SDS011;63946;51.986;5.930;2023-07-20T12:36:27;1.30;;;1.20;;
75356;SDS011;63946;51.986;5.930;2023-07-20T12:38:58;1.25;;;1.10;;
75356;SDS011;63946;51.986;5.930;2023-07-20T12:41:27;1.15;;;1.00;;
75356;SDS011;63946;51.986;5.930;2023-07-20T12:43:59;1.25;;;1.00;;
75356;SDS011;63946;51.986;5.930;2023-07-20T12:46:37;1.13;;;1.00;;
75356;SDS011;63946;51.986;5.930;2023-07-20T12:49:14;1.38;;;1.20;;
75356;SDS011;63946;51.986;5.930;2023-07-20T12:55:21;1.40;;;1.30;;
75356;SDS011;63946;51.986;5.930;2023-07-20T12:57:51;0.95;;;0.90;;
75356;SDS011;63946;51.986;5.930;2023-07-20T13:00:20;1.90;;;1.00;;
75356;SDS011;63946;51.986;5.930;2023-07-20T13:02:51;2.13;;;1.17;;
75356;SDS011;63946;51.986;5.930;2023-07-20T13:05:29;2.05;;;1.10;;
75356;SDS011;63946;51.986;5.930;2023-07-20T13:08:07;0.90;;;0.82;;
75356;SDS011;63946;51.986;5.930;2023-07-20T13:10:47;1.30;;;1.00;;
75356;SDS011;63946;51.986;5.930;2023-07-20T13:13:19;0.75;;;0.70;;
75356;SDS011;63946;51.986;5.930;2023-07-20T13:15:56;1.23;;;0.93;;
75356;SDS011;63946;51.986;5.930;2023-07-20T13:18:55;1.30;;;1.20;;
75356;SDS011;63946;51.986;5.930;2023-07-20T13:21:48;1.65;;;0.90;;
75356;SDS011;63946;51.986;5.930;2023-07-20T13:24:23;1.27;;;0.95;;
75356;SDS011;63946;51.986;5.930;2023-07-20T13:26:55;1.33;;;0.90;;
75356;SDS011;63946;51.986;5.930;2023-07-20T13:29:31;1.58;;;1.20;;
75356;SDS011;63946;51.986;5.930;2023-07-20T13:32:17;1.55;;;0.80;;
75356;SDS011;63946;51.986;5.930;2023-07-20T13:35:16;1.25;;;0.88;;
75356;SDS011;63946;51.986;5.930;2023-07-20T13:37:59;1.13;;;1.13;;
75356;SDS011;63946;51.986;5.930;2023-07-20T13:43:37;0.88;;;0.75;;
75356;SDS011;63946;51.986;5.930;2023-07-20T13:46:41;1.33;;;0.90;;
75356;SDS011;63946;51.986;5.930;2023-07-20T13:49:14;1.15;;;0.90;;
75356;SDS011;63946;51.986;5.930;2023-07-20T13:51:51;0.95;;;0.93;;
75356;SDS011;63946;51.986;5.930;2023-07-20T13:54:42;1.13;;;0.90;;
75356;SDS011;63946;51.986;5.930;2023-07-20T13:57:22;2.33;;;1.10;;
75356;SDS011;63946;51.986;5.930;2023-07-20T13:59:54;0.90;;;0.90;;
75356;SDS011;63946;51.986;5.930;2023-07-20T14:02:37;1.50;;;0.90;;
75356;SDS011;63946;51.986;5.930;2023-07-20T14:05:21;1.70;;;1.60;;
75356;SDS011;63946;51.986;5.930;2023-07-20T14:08:11;1.17;;;1.17;;
75356;SDS011;63946;51.986;5.930;2023-07-20T14:10:47;1.00;;;0.85;;
75356;SDS011;63946;51.986;5.930;2023-07-20T14:13:20;1.55;;;1.02;;
75356;SDS011;63946;51.986;5.930;2023-07-20T14:15:59;1.70;;;1.00;;
75356;SDS011;63946;51.986;5.930;2023-07-20T14:18:58;1.15;;;0.82;;
75356;SDS011;63946;51.986;5.930;2023-07-20T14:21:41;1.08;;;0.98;;
75356;SDS011;63946;51.986;5.930;2023-07-20T14:24:13;1.52;;;1.10;;
75356;SDS011;63946;51.986;5.930;2023-07-20T14:26:43;1.50;;;1.08;;
75356;SDS011;63946;51.986;5.930;2023-07-20T14:29:26;0.73;;;0.73;;
75356;SDS011;63946;51.986;5.930;2023-07-20T14:31:57;1.75;;;1.05;;
75356;SDS011;63946;51.986;5.930;2023-07-20T14:34:30;1.08;;;0.73;;
75356;SDS011;63946;51.986;5.930;2023-07-20T14:37:06;0.95;;;0.90;;
75356;SDS011;63946;51.986;5.930;2023-07-20T14:39:42;2.53;;;1.15;;
75356;SDS011;63946;51.986;5.930;2023-07-20T14:42:14;1.85;;;1.20;;
75356;SDS011;63946;51.986;5.930;2023-07-20T14:44:43;3.30;;;0.98;;
75356;SDS011;63946;51.986;5.930;2023-07-20T14:47:26;2.30;;;1.00;;
75356;SDS011;63946;51.986;5.930;2023-07-20T14:50:22;1.55;;;0.68;;
75356;SDS011;63946;51.986;5.930;2023-07-20T14:52:56;1.15;;;0.98;;
75356;SDS011;63946;51.986;5.930;2023-07-20T14:58:45;1.52;;;0.93;;
75356;SDS011;63946;51.986;5.930;2023-07-20T15:01:24;1.38;;;0.95;;
75356;SDS011;63946;51.986;5.930;2023-07-20T15:04:01;1.50;;;1.10;;
75356;SDS011;63946;51.986;5.930;2023-07-20T15:06:44;1.25;;;1.10;;
75356;SDS011;63946;51.986;5.930;2023-07-20T15:12:11;1.02;;;0.82;;
75356;SDS011;63946;51.986;5.930;2023-07-20T15:15:10;1.17;;;0.90;;
75356;SDS011;63946;51.986;5.930;2023-07-20T15:17:51;0.93;;;0.93;;
75356;SDS011;63946;51.986;5.930;2023-07-20T15:20:35;1.45;;;0.90;;
75356;SDS011;63946;51.986;5.930;2023-07-20T15:23:04;2.00;;;1.05;;
75356;SDS011;63946;51.986;5.930;2023-07-20T15:25:46;1.30;;;1.00;;
75356;SDS011;63946;51.986;5.930;2023-07-20T15:28:45;1.33;;;0.93;;
75356;SDS011;63946;51.986;5.930;2023-07-20T15:31:26;1.48;;;0.98;;
75356;SDS011;63946;51.986;5.930;2023-07-20T15:34:02;1.15;;;1.05;;
75356;SDS011;63946;51.986;5.930;2023-07-20T15:36:38;1.33;;;1.10;;
75356;SDS011;63946;51.986;5.930;2023-07-20T15:39:10;1.60;;;1.50;;
75356;SDS011;63946;51.986;5.930;2023-07-20T15:41:45;0.98;;;0.90;;
75356;SDS011;63946;51.986;5.930;2023-07-20T15:44:33;1.52;;;1.17;;
75356;SDS011;63946;51.986;5.930;2023-07-20T15:47:09;2.70;;;1.00;;
75356;SDS011;63946;51.986;5.930;2023-07-20T15:49:41;1.25;;;0.82;;
75356;SDS011;63946;51.986;5.930;2023-07-20T15:54:43;1.60;;;1.13;;
75356;SDS011;63946;51.986;5.930;2023-07-20T15:57:15;1.00;;;0.90;;
75356;SDS011;63946;51.986;5.930;2023-07-20T15:59:55;1.00;;;0.90;;
75356;SDS011;63946;51.986;5.930;2023-07-20T16:02:40;1.08;;;1.00;;
75356;SDS011;63946;51.986;5.930;2023-07-20T16:05:14;1.63;;;0.73;;
75356;SDS011;63946;51.986;5.930;2023-07-20T16:07:48;1.20;;;1.10;;
75356;SDS011;63946;51.986;5.930;2023-07-20T16:10:21;1.25;;;1.13;;
75356;SDS011;63946;51.986;5.930;2023-07-20T16:13:01;1.40;;;1.30;;
75356;SDS011;63946;51.986;5.930;2023-07-20T16:15:40;1.45;;;1.35;;
75356;SDS011;63946;51.986;5.930;2023-07-20T16:18:11;1.20;;;1.10;;
75356;SDS011;63946;51.986;5.930;2023-07-20T16:20:44;1.10;;;0.95;;
75356;SDS011;63946;51.986;5.930;2023-07-20T16:23:32;1.42;;;1.05;;
75356;SDS011;63946;51.986;5.930;2023-07-20T16:26:05;1.50;;;1.40;;
75356;SDS011;63946;51.986;5.930;2023-07-20T16:28:45;1.33;;;1.08;;
75356;SDS011;63946;51.986;5.930;2023-07-20T16:31:27;1.02;;;0.85;;
75356;SDS011;63946;51.986;5.930;2023-07-20T16:33:59;1.73;;;1.20;;
75356;SDS011;63946;51.986;5.930;2023-07-20T16:36:33;1.27;;;1.15;;
75356;SDS011;63946;51.986;5.930;2023-07-20T16:39:04;1.33;;;1.13;;
75356;SDS011;63946;51.986;5.930;2023-07-20T16:41:45;1.65;;;1.00;;
75356;SDS011;63946;51.986;5.930;2023-07-20T16:44:22;2.53;;;1.10;;
75356;SDS011;63946;51.986;5.930;2023-07-20T16:47:03;1.80;;;1.10;;
75356;SDS011;63946;51.986;5.930;2023-07-20T16:49:38;1.50;;;1.27;;
75356;SDS011;63946;51.986;5.930;2023-07-20T16:52:14;1.63;;;1.52;;
75356;SDS011;63946;51.986;5.930;2023-07-20T16:55:07;1.13;;;1.02;;
75356;SDS011;63946;51.986;5.930;2023-07-20T16:57:50;1.75;;;1.20;;
75356;SDS011;63946;51.986;5.930;2023-07-20T17:00:27;1.70;;;1.23;;
75356;SDS011;63946;51.986;5.930;2023-07-20T17:03:02;2.38;;;1.13;;
75356;SDS011;63946;51.986;5.930;2023-07-20T17:05:46;1.40;;;1.08;;
75356;SDS011;63946;51.986;5.930;2023-07-20T17:08:18;1.45;;;1.00;;
75356;SDS011;63946;51.986;5.930;2023-07-20T17:10:55;2.70;;;1.30;;
75356;SDS011;63946;51.986;5.930;2023-07-20T17:13:33;2.10;;;1.60;;
75356;SDS011;63946;51.986;5.930;2023-07-20T17:16:12;3.13;;;2.78;;
75356;SDS011;63946;51.986;5.930;2023-07-20T17:18:42;4.85;;;3.53;;
75356;SDS011;63946;51.986;5.930;2023-07-20T17:21:33;2.33;;;1.70;;
75356;SDS011;63946;51.986;5.930;2023-07-20T17:27:56;1.55;;;1.10;;
75356;SDS011;63946;51.986;5.930;2023-07-20T17:34:21;4.65;;;3.20;;
75356;SDS011;63946;51.986;5.930;2023-07-20T17:36:54;4.28;;;2.00;;
75356;SDS011;63946;51.986;5.930;2023-07-20T17:42:49;1.67;;;1.40;;
75356;SDS011;63946;51.986;5.930;2023-07-20T17:51:45;1.33;;;1.10;;
75356;SDS011;63946;51.986;5.930;2023-07-20T17:54:26;2.03;;;1.20;;
75356;SDS011;63946;51.986;5.930;2023-07-20T18:00:31;2.85;;;1.20;;
75356;SDS011;63946;51.986;5.930;2023-07-20T18:03:47;1.98;;;1.20;;
75356;SDS011;63946;51.986;5.930;2023-07-20T18:06:30;2.20;;;1.25;;
75356;SDS011;63946;51.986;5.930;2023-07-20T18:09:12;1.63;;;1.45;;
75356;SDS011;63946;51.986;5.930;2023-07-20T18:11:55;1.98;;;1.20;;
75356;SDS011;63946;51.986;5.930;2023-07-20T18:14:56;1.85;;;1.30;;
75356;SDS011;63946;51.986;5.930;2023-07-20T18:17:33;1.88;;;1.35;;
75356;SDS011;63946;51.986;5.930;2023-07-20T18:20:11;1.95;;;1.73;;
75356;SDS011;63946;51.986;5.930;2023-07-20T18:23:07;1.73;;;1.50;;
75356;SDS011;63946;51.986;5.930;2023-07-20T18:25:46;2.22;;;1.33;;
75356;SDS011;63946;51.986;5.930;2023-07-20T18:28:24;2.08;;;1.80;;
75356;SDS011;63946;51.986;5.930;2023-07-20T18:34:09;2.88;;;1.70;;
75356;SDS011;63946;51.986;5.930;2023-07-20T18:36:48;2.88;;;1.83;;
75356;SDS011;63946;51.986;5.930;2023-07-20T18:39:28;1.75;;;1.33;;
75356;SDS011;63946;51.986;5.930;2023-07-20T18:42:05;2.53;;;1.45;;
75356;SDS011;63946;51.986;5.930;2023-07-20T18:44:44;3.15;;;1.83;;
75356;SDS011;63946;51.986;5.930;2023-07-20T18:47:17;1.48;;;1.38;;
75356;SDS011;63946;51.986;5.930;2023-07-20T18:49:46;1.85;;;1.40;;
75356;SDS011;63946;51.986;5.930;2023-07-20T18:52:23;1.55;;;1.20;;
75356;SDS011;63946;51.986;5.930;2023-07-20T18:54:52;2.35;;;1.23;;
75356;SDS011;63946;51.986;5.930;2023-07-20T18:57:31;1.60;;;1.23;;
75356;SDS011;63946;51.986;5.930;2023-07-20T19:00:01;1.63;;;1.30;;
75356;SDS011;63946;51.986;5.930;2023-07-20T19:02:50;1.88;;;1.30;;
75356;SDS011;63946;51.986;5.930;2023-07-20T19:05:34;2.72;;;1.25;;
75356;SDS011;63946;51.986;5.930;2023-07-20T19:08:11;1.60;;;1.50;;
75356;SDS011;63946;51.986;5.930;2023-07-20T19:10:48;1.30;;;1.20;;
75356;SDS011;63946;51.986;5.930;2023-07-20T19:13:23;1.48;;;1.38;;
75356;SDS011;63946;51.986;5.930;2023-07-20T19:16:05;1.42;;;1.30;;
75356;SDS011;63946;51.986;5.930;2023-07-20T19:18:34;1.65;;;1.33;;
75356;SDS011;63946;51.986;5.930;2023-07-20T19:21:09;3.92;;;1.80;;
75356;SDS011;63946;51.986;5.930;2023-07-20T19:23:43;2.97;;;1.75;;
75356;SDS011;63946;51.986;5.930;2023-07-20T19:26:15;4.03;;;2.20;;
75356;SDS011;63946;51.986;5.930;2023-07-20T19:29:04;2.63;;;2.00;;
75356;SDS011;63946;51.986;5.930;2023-07-20T19:31:35;2.90;;;2.50;;
75356;SDS011;63946;51.986;5.930;2023-07-20T19:34:20;4.10;;;3.42;;
75356;SDS011;63946;51.986;5.930;2023-07-20T19:36:51;2.72;;;2.53;;
75356;SDS011;63946;51.986;5.930;2023-07-20T19:39:27;3.35;;;2.63;;
75356;SDS011;63946;51.986;5.930;2023-07-20T19:41:56;2.60;;;2.40;;
75356;SDS011;63946;51.986;5.930;2023-07-20T19:44:31;3.30;;;3.00;;
75356;SDS011;63946;51.986;5.930;2023-07-20T19:47:04;3.60;;;2.70;;
75356;SDS011;63946;51.986;5.930;2023-07-20T19:49:41;3.35;;;2.50;;
75356;SDS011;63946;51.986;5.930;2023-07-20T19:52:10;2.90;;;2.22;;
75356;SDS011;63946;51.986;5.930;2023-07-20T19:54:44;4.82;;;3.38;;
75356;SDS011;63946;51.986;5.930;2023-07-20T19:57:22;3.50;;;3.20;;
75356;SDS011;63946;51.986;5.930;2023-07-20T20:00:04;3.50;;;3.20;;
75356;SDS011;63946;51.986;5.930;2023-07-20T20:02:38;3.90;;;3.38;;
75356;SDS011;63946;51.986;5.930;2023-07-20T20:05:10;3.03;;;2.70;;
75356;SDS011;63946;51.986;5.930;2023-07-20T20:07:52;4.88;;;3.40;;
75356;SDS011;63946;51.986;5.930;2023-07-20T20:10:24;3.72;;;3.42;;
75356;SDS011;63946;51.986;5.930;2023-07-20T20:12:59;3.67;;;3.38;;
75356;SDS011;63946;51.986;5.930;2023-07-20T20:15:38;4.25;;;3.55;;
75356;SDS011;63946;51.986;5.930;2023-07-20T20:18:21;3.45;;;3.15;;
75356;SDS011;63946;51.986;5.930;2023-07-20T20:20:54;4.05;;;3.30;;
75356;SDS011;63946;51.986;5.930;2023-07-20T20:23:27;5.47;;;3.55;;
75356;SDS011;63946;51.986;5.930;2023-07-20T20:26:24;3.75;;;3.40;;
75356;SDS011;63946;51.986;5.930;2023-07-20T20:29:08;5.45;;;3.40;;
75356;SDS011;63946;51.986;5.930;2023-07-20T20:31:44;5.18;;;3.70;;
75356;SDS011;63946;51.986;5.930;2023-07-20T20:34:22;4.60;;;3.70;;
75356;SDS011;63946;51.986;5.930;2023-07-20T20:36:59;4.07;;;3.70;;
75356;SDS011;63946;51.986;5.930;2023-07-20T20:39:38;4.63;;;4.03;;
75356;SDS011;63946;51.986;5.930;2023-07-20T20:42:10;5.00;;;4.50;;
